Time;durP1;ratioP1;P1;durP2;ratioP2;P2;SDS_P1;SDS_P2;PMS_P1;PMS_P2;Temp;Humidity;BMP_temperature;BMP_pressure;BME280_temperature;BME280_humidity;BME280_pressure;Samples;Min_cycle;Max_cycle;Signal;HPM_P1;HPM_P2
2021/10/12 00:01:45;;;;;;;10.38;9.38;;;5.30;81.50;;;;;;5200627;28;20155;-67
2021/10/12 00:04:17;;;;;;;10.48;9.45;;;5.30;81.10;;;;;;5205509;28;20821;-66
2021/10/12 00:06:49;;;;;;;15.18;10.13;;;5.30;81.10;;;;;;5200261;28;20418;-66
2021/10/12 00:09:21;;;;;;;10.30;9.07;;;5.40;81.20;;;;;;5201104;28;20077;-66
2021/10/12 00:11:53;;;;;;;10.10;9.10;;;5.40;81.00;;;;;;5198033;28;20049;-66
2021/10/12 00:14:26;;;;;;;10.52;9.52;;;5.40;81.40;;;;;;5203962;28;20041;-66
2021/10/12 00:16:59;;;;;;;9.95;8.75;;;5.40;81.40;;;;;;5202751;28;20049;-66
2021/10/12 00:19:31;;;;;;;10.77;9.63;;;5.40;81.20;;;;;;5202407;28;20056;-66
2021/10/12 00:22:03;;;;;;;11.05;9.23;;;5.40;81.40;;;;;;5200691;28;20052;-66
2021/10/12 00:24:35;;;;;;;9.63;8.48;;;5.40;81.40;;;;;;5203156;28;20069;-67
2021/10/12 00:27:06;;;;;;;9.65;7.95;;;5.40;81.50;;;;;;5201290;28;20781;-66
2021/10/12 00:29:38;;;;;;;10.77;9.02;;;5.40;82.70;;;;;;5201894;28;20130;-66
2021/10/12 00:32:10;;;;;;;9.60;8.60;;;5.40;82.00;;;;;;5201891;28;20045;-66
2021/10/12 00:34:42;;;;;;;10.32;9.32;;;5.50;82.80;;;;;;5203514;28;20041;-66
2021/10/12 00:37:14;;;;;;;10.45;9.45;;;5.50;82.10;;;;;;5203974;28;20174;-66
2021/10/12 00:39:46;;;;;;;10.00;8.98;;;5.60;81.60;;;;;;5203298;28;20054;-66
2021/10/12 00:42:18;;;;;;;10.05;9.02;;;5.60;81.80;;;;;;5200451;28;20041;-66
2021/10/12 00:44:50;;;;;;;10.65;8.77;;;5.60;82.30;;;;;;5200623;28;20065;-66
2021/10/12 00:47:22;;;;;;;9.25;8.35;;;5.60;81.80;;;;;;5199784;28;20093;-65
2021/10/12 00:49:54;;;;;;;9.80;8.80;;;5.60;81.60;;;;;;5199935;28;20076;-66
2021/10/12 00:52:26;;;;;;;9.40;8.50;;;5.60;82.20;;;;;;5201902;28;20049;-67
2021/10/12 00:54:58;;;;;;;9.00;8.10;;;5.60;82.20;;;;;;5198857;28;20091;-66
2021/10/12 00:57:30;;;;;;;9.45;8.55;;;5.70;82.60;;;;;;5199305;28;20045;-66
2021/10/12 01:00:02;;;;;;;11.60;8.90;;;5.70;82.10;;;;;;5200613;28;20534;-67
2021/10/12 01:02:35;;;;;;;9.10;8.13;;;5.70;82.50;;;;;;5201112;28;20496;-68
2021/10/12 01:05:08;;;;;;;10.45;9.45;;;5.70;81.90;;;;;;5200168;28;20041;-65
2021/10/12 01:07:40;;;;;;;9.75;8.75;;;5.80;82.20;;;;;;5199458;28;20132;-67
2021/10/12 01:10:12;;;;;;;9.63;8.63;;;5.70;82.50;;;;;;5200017;28;20504;-67
2021/10/12 01:12:44;;;;;;;10.05;9.05;;;5.70;81.80;;;;;;5198723;28;20049;-66
2021/10/12 01:15:17;;;;;;;9.65;8.40;;;5.70;81.70;;;;;;5200102;28;20049;-67
2021/10/12 01:17:49;;;;;;;10.52;9.52;;;5.80;81.70;;;;;;5199388;28;20077;-66
2021/10/12 01:20:22;;;;;;;9.43;8.52;;;5.70;82.30;;;;;;5199984;28;20167;-66
2021/10/12 01:22:54;;;;;;;10.27;9.20;;;5.70;82.20;;;;;;5199548;28;20049;-66
2021/10/12 01:25:27;;;;;;;9.93;8.93;;;5.70;82.70;;;;;;5199904;28;20570;-66
2021/10/12 01:28:00;;;;;;;10.02;9.10;;;5.70;82.30;;;;;;5198414;28;20049;-68
2021/10/12 01:30:32;;;;;;;9.75;8.80;;;5.70;83.20;;;;;;5201441;28;20138;-67
2021/10/12 01:33:06;;;;;;;10.20;9.20;;;5.60;82.80;;;;;;5200750;28;20048;-66
2021/10/12 01:35:39;;;;;;;9.90;9.00;;;5.60;82.10;;;;;;5198623;28;20111;-67
2021/10/12 01:38:11;;;;;;;10.23;9.25;;;5.60;82.00;;;;;;5198799;28;20164;-66
2021/10/12 01:40:42;;;;;;;9.85;8.85;;;5.60;82.80;;;;;;5199407;28;20053;-66
2021/10/12 01:43:14;;;;;;;11.75;9.30;;;5.60;83.60;;;;;;5200600;28;20053;-66
2021/10/12 01:45:46;;;;;;;9.45;8.55;;;5.60;82.80;;;;;;5200204;28;20131;-67
2021/10/12 01:48:18;;;;;;;10.35;8.65;;;5.60;82.40;;;;;;5200863;28;20041;-66
2021/10/12 01:50:50;;;;;;;9.77;8.88;;;5.60;82.30;;;;;;5201241;28;20525;-66
2021/10/12 01:53:22;;;;;;;9.88;8.90;;;5.70;82.30;;;;;;5199717;28;20045;-66
2021/10/12 01:55:54;;;;;;;11.15;10.10;;;5.70;83.10;;;;;;5198054;28;20053;-66
2021/10/12 01:58:26;;;;;;;11.13;10.00;;;5.70;82.50;;;;;;5202164;28;20045;-69
2021/10/12 02:00:58;;;;;;;10.48;9.38;;;5.60;81.90;;;;;;5197176;28;20049;-68
2021/10/12 02:03:30;;;;;;;10.85;9.73;;;5.60;81.80;;;;;;5198317;28;20653;-67
2021/10/12 02:06:02;;;;;;;11.13;9.20;;;5.60;81.80;;;;;;5197887;28;20978;-67
2021/10/12 02:08:34;;;;;;;9.73;8.82;;;5.60;82.50;;;;;;5198337;28;20550;-68
2021/10/12 02:11:06;;;;;;;9.63;8.73;;;5.40;82.50;;;;;;5198390;28;20060;-66
2021/10/12 02:13:38;;;;;;;9.48;8.57;;;5.30;83.00;;;;;;5201110;28;20041;-67
2021/10/12 02:16:10;;;;;;;9.40;8.40;;;5.30;82.60;;;;;;5199335;28;20515;-66
2021/10/12 02:18:42;;;;;;;9.63;8.70;;;5.20;83.50;;;;;;5198080;28;20056;-66
2021/10/12 02:21:14;;;;;;;9.77;8.88;;;5.20;84.10;;;;;;5199749;28;20073;-67
2021/10/12 02:23:46;;;;;;;9.95;8.95;;;5.00;84.40;;;;;;5200521;28;20041;-66
2021/10/12 02:26:18;;;;;;;9.85;8.82;;;5.10;84.00;;;;;;5198758;28;20041;-67
2021/10/12 02:28:50;;;;;;;10.07;9.07;;;5.10;83.90;;;;;;5199176;28;20045;-67
2021/10/12 02:31:22;;;;;;;8.88;8.07;;;5.10;84.30;;;;;;5198300;28;20059;-67
2021/10/12 02:33:55;;;;;;;9.23;8.32;;;5.10;84.40;;;;;;5200101;28;20069;-66
2021/10/12 02:36:27;;;;;;;10.90;9.40;;;5.10;84.30;;;;;;5198669;28;20148;-67
2021/10/12 02:38:59;;;;;;;9.35;8.48;;;5.20;83.50;;;;;;5198368;28;20049;-66
2021/10/12 02:41:31;;;;;;;9.70;8.73;;;5.20;83.70;;;;;;5200491;28;20052;-66
2021/10/12 02:44:03;;;;;;;11.82;8.55;;;5.20;84.20;;;;;;5199324;28;20048;-68
2021/10/12 02:46:35;;;;;;;9.40;8.50;;;5.30;83.70;;;;;;5197199;28;20045;-68
2021/10/12 02:49:07;;;;;;;10.02;9.10;;;5.30;83.70;;;;;;5199158;28;20034;-68
2021/10/12 02:51:39;;;;;;;9.57;8.68;;;5.30;83.50;;;;;;5200401;28;20451;-69
2021/10/12 02:54:11;;;;;;;10.18;9.18;;;5.40;83.20;;;;;;5200125;28;20077;-66
2021/10/12 02:56:43;;;;;;;9.52;8.60;;;5.40;82.80;;;;;;5198971;28;20127;-66
2021/10/12 02:59:15;;;;;;;9.80;8.82;;;5.40;83.00;;;;;;5198299;28;20132;-66
2021/10/12 03:01:47;;;;;;;9.32;8.43;;;5.50;83.20;;;;;;5198218;28;20052;-66
2021/10/12 03:04:19;;;;;;;9.98;8.52;;;5.50;83.50;;;;;;5171288;28;20504;-67
2021/10/12 03:06:50;;;;;;;9.27;8.38;;;5.50;83.30;;;;;;5198130;28;20122;-69
2021/10/12 03:09:22;;;;;;;9.25;8.35;;;5.50;83.20;;;;;;5200451;28;20131;-68
2021/10/12 03:11:54;;;;;;;9.57;8.68;;;5.50;83.40;;;;;;5199142;28;20072;-66
2021/10/12 03:14:26;;;;;;;9.70;8.70;;;5.50;83.80;;;;;;5201902;28;20068;-66
2021/10/12 03:16:58;;;;;;;11.50;8.32;;;5.50;83.60;;;;;;5199193;28;20049;-66
2021/10/12 03:19:30;;;;;;;9.07;8.18;;;5.60;83.60;;;;;;5198519;28;20057;-67
2021/10/12 03:22:14;;;;;;;10.35;8.40;;;5.60;83.60;;;;;;5197481;28;20506;-67
2021/10/12 03:24:46;;;;;;;9.00;8.18;;;5.60;83.30;;;;;;5199142;28;20610;-67
2021/10/12 03:27:18;;;;;;;9.13;8.23;;;5.60;83.20;;;;;;5198293;28;21211;-67
2021/10/12 03:29:49;;;;;;;8.98;8.15;;;5.60;83.30;;;;;;5200005;28;20148;-67
2021/10/12 03:32:21;;;;;;;9.30;8.40;;;5.60;82.80;;;;;;5199723;28;20049;-66
2021/10/12 03:34:53;;;;;;;10.35;9.25;;;5.60;82.70;;;;;;5198816;28;20046;-66
2021/10/12 03:37:25;;;;;;;9.57;8.68;;;5.60;83.60;;;;;;5199696;28;20666;-68
2021/10/12 03:39:57;;;;;;;9.70;8.70;;;5.60;83.00;;;;;;5198612;28;20071;-67
2021/10/12 03:42:29;;;;;;;9.15;8.25;;;5.60;82.60;;;;;;5197563;28;20049;-66
2021/10/12 03:45:01;;;;;;;9.52;8.60;;;5.60;83.00;;;;;;5198481;28;20104;-66
2021/10/12 03:47:32;;;;;;;9.15;8.25;;;5.40;83.00;;;;;;5198229;28;20141;-66
2021/10/12 03:50:05;;;;;;;8.73;7.90;;;5.40;82.60;;;;;;5203369;28;20069;-66
2021/10/12 03:52:37;;;;;;;8.82;7.93;;;5.30;82.70;;;;;;5202332;28;20075;-66
2021/10/12 03:55:09;;;;;;;9.13;8.25;;;5.30;83.00;;;;;;5202928;28;20576;-66
2021/10/12 03:57:41;;;;;;;9.63;8.63;;;5.30;83.00;;;;;;5201538;28;20048;-67
2021/10/12 04:00:13;;;;;;;9.27;8.35;;;5.30;82.60;;;;;;5203781;28;20068;-66
2021/10/12 04:02:45;;;;;;;9.52;8.63;;;5.20;82.80;;;;;;5204899;28;20139;-66
2021/10/12 04:05:17;;;;;;;9.27;8.27;;;5.20;82.90;;;;;;5201182;28;20917;-66
2021/10/12 04:07:49;;;;;;;8.98;8.10;;;5.20;83.30;;;;;;5201663;28;20411;-66
2021/10/12 04:10:22;;;;;;;9.90;8.90;;;5.10;83.90;;;;;;5203308;28;20174;-66
2021/10/12 04:12:54;;;;;;;8.95;8.05;;;5.00;84.30;;;;;;5204669;28;20072;-66
2021/10/12 04:15:25;;;;;;;9.50;8.55;;;5.00;84.50;;;;;;5202005;28;20138;-66
2021/10/12 04:17:58;;;;;;;10.32;8.23;;;5.00;84.30;;;;;;5199064;28;20065;-66
2021/10/12 04:20:30;;;;;;;8.50;7.70;;;4.90;84.40;;;;;;5202784;28;20055;-66
2021/10/12 04:23:03;;;;;;;9.68;8.55;;;4.90;84.50;;;;;;5200204;28;20052;-67
2021/10/12 04:25:35;;;;;;;8.73;7.75;;;4.90;84.50;;;;;;5205695;28;20736;-66
2021/10/12 04:28:12;;;;;;;8.52;7.72;;;4.90;85.10;;;;;;5201366;28;20123;-66
2021/10/12 04:30:45;;;;;;;8.32;7.53;;;5.00;84.50;;;;;;5199848;28;20102;-66
2021/10/12 04:33:17;;;;;;;9.73;7.95;;;5.00;84.30;;;;;;5199980;28;20059;-67
2021/10/12 04:35:50;;;;;;;9.07;8.10;;;5.10;83.80;;;;;;5200285;28;20045;-67
2021/10/12 04:38:22;;;;;;;9.23;7.25;;;5.20;83.70;;;;;;5200849;28;20080;-66
2021/10/12 04:40:54;;;;;;;8.52;7.63;;;5.20;84.00;;;;;;5200562;28;20106;-67
2021/10/12 04:43:26;;;;;;;9.43;8.00;;;5.30;84.00;;;;;;5202694;28;20132;-66
2021/10/12 04:45:58;;;;;;;12.50;10.25;;;5.30;84.10;;;;;;5198636;28;20104;-66
2021/10/12 04:48:30;;;;;;;9.48;8.38;;;5.30;84.30;;;;;;5201096;28;20068;-66
2021/10/12 04:51:02;;;;;;;10.90;9.80;;;5.40;83.30;;;;;;5201593;28;20068;-69
2021/10/12 04:53:33;;;;;;;11.05;9.65;;;5.40;83.40;;;;;;5201675;28;20047;-66
2021/10/12 04:56:05;;;;;;;10.30;8.63;;;5.40;83.80;;;;;;5202054;28;20084;-67
2021/10/12 04:58:38;;;;;;;9.73;8.57;;;5.30;84.20;;;;;;5201273;28;20041;-66
2021/10/12 05:01:10;;;;;;;10.80;9.23;;;5.30;84.30;;;;;;5201942;28;20128;-67
2021/10/12 05:03:42;;;;;;;9.63;8.73;;;5.30;84.00;;;;;;5201672;28;20045;-66
2021/10/12 05:06:14;;;;;;;8.93;8.02;;;5.30;84.70;;;;;;5199888;28;20148;-65
2021/10/12 05:08:46;;;;;;;8.95;8.05;;;5.30;84.00;;;;;;5200587;28;20778;-66
2021/10/12 05:11:18;;;;;;;9.02;8.13;;;5.20;83.30;;;;;;5200599;28;20056;-67
2021/10/12 05:13:50;;;;;;;8.35;7.53;;;5.10;82.80;;;;;;5199567;28;20564;-66
2021/10/12 05:16:23;;;;;;;9.13;8.25;;;5.10;82.80;;;;;;5203014;28;20051;-66
2021/10/12 05:18:58;;;;;;;10.85;7.90;;;5.10;83.20;;;;;;5196762;28;20040;-65
2021/10/12 05:21:31;;;;;;;9.18;8.27;;;5.10;83.00;;;;;;5199719;28;20156;-66
2021/10/12 05:24:03;;;;;;;8.80;7.90;;;5.10;82.90;;;;;;5199597;28;20731;-65
2021/10/12 05:26:35;;;;;;;8.23;7.32;;;5.10;83.20;;;;;;5199025;28;20410;-66
2021/10/12 05:29:10;;;;;;;8.95;7.57;;;5.20;83.60;;;;;;5197097;28;20426;-65
2021/10/12 05:31:42;;;;;;;8.65;7.75;;;5.20;83.90;;;;;;5198729;28;20503;-65
2021/10/12 05:34:15;;;;;;;9.95;8.45;;;5.20;83.90;;;;;;5201091;28;20121;-66
2021/10/12 05:36:47;;;;;;;10.50;8.55;;;5.20;85.30;;;;;;5199011;28;20148;-66
2021/10/12 05:39:18;;;;;;;10.13;8.50;;;5.20;85.50;;;;;;5198719;28;20038;-65
2021/10/12 05:41:50;;;;;;;9.15;8.10;;;5.10;85.70;;;;;;5194159;28;20081;-65
2021/10/12 05:44:23;;;;;;;9.80;8.45;;;5.10;85.80;;;;;;5196789;28;20835;-65
2021/10/12 05:46:54;;;;;;;10.27;8.27;;;5.10;86.10;;;;;;5197252;28;20124;-65
2021/10/12 05:49:26;;;;;;;10.18;7.70;;;5.10;86.00;;;;;;5198891;28;20037;-66
2021/10/12 05:52:01;;;;;;;10.57;8.63;;;5.10;86.10;;;;;;5199074;28;20073;-66
2021/10/12 05:54:37;;;;;;;9.40;8.40;;;5.10;86.30;;;;;;5199690;28;20049;-65
2021/10/12 05:57:18;;;;;;;9.35;8.00;;;5.10;86.20;;;;;;5198980;28;20043;-65
2021/10/12 05:59:49;;;;;;;12.18;8.65;;;5.20;86.00;;;;;;5199784;28;20549;-66
2021/10/12 06:02:21;;;;;;;9.88;7.97;;;5.20;86.30;;;;;;5197975;28;20136;-66
2021/10/12 06:04:53;;;;;;;9.70;7.38;;;5.30;86.40;;;;;;5197846;28;20044;-65
2021/10/12 06:07:25;;;;;;;8.25;7.38;;;5.30;86.20;;;;;;5199968;28;20098;-64
2021/10/12 06:09:57;;;;;;;10.90;8.00;;;5.40;86.00;;;;;;5199618;28;20045;-65
2021/10/12 06:12:29;;;;;;;9.38;8.38;;;5.40;85.00;;;;;;5201263;28;20041;-65
2021/10/12 06:15:01;;;;;;;10.18;8.35;;;5.50;85.00;;;;;;5199163;28;20060;-65
2021/10/12 06:17:33;;;;;;;9.68;8.68;;;5.50;85.00;;;;;;5199079;28;20050;-65
2021/10/12 06:20:06;;;;;;;11.10;8.82;;;5.60;86.20;;;;;;5199747;28;20414;-67
2021/10/12 06:22:37;;;;;;;10.20;8.68;;;5.60;85.40;;;;;;5197885;28;20044;-66
2021/10/12 06:25:09;;;;;;;9.68;8.68;;;5.60;85.10;;;;;;5197839;28;20037;-65
2021/10/12 06:27:43;;;;;;;12.85;8.60;;;5.60;85.80;;;;;;5198388;28;20092;-65
2021/10/12 06:30:15;;;;;;;14.77;9.60;;;5.70;85.90;;;;;;5198946;28;20464;-65
2021/10/12 06:32:47;;;;;;;11.77;8.57;;;5.60;85.80;;;;;;5202502;28;20130;-65
2021/10/12 06:35:19;;;;;;;9.82;8.75;;;5.60;85.80;;;;;;5197500;28;20895;-66
2021/10/12 06:37:51;;;;;;;9.43;8.40;;;5.60;85.80;;;;;;5198311;28;20049;-65
2021/10/12 06:40:23;;;;;;;8.90;7.78;;;5.60;86.00;;;;;;5198536;28;20426;-65
2021/10/12 06:42:55;;;;;;;9.35;8.20;;;5.70;85.90;;;;;;5201269;28;20045;-66
2021/10/12 06:45:27;;;;;;;9.57;8.40;;;5.70;85.60;;;;;;5197673;28;20688;-65
2021/10/12 06:47:59;;;;;;;9.75;8.52;;;5.70;85.20;;;;;;5197381;28;20052;-67
2021/10/12 06:50:32;;;;;;;11.35;8.60;;;5.80;85.00;;;;;;5199660;28;20045;-65
2021/10/12 06:53:04;;;;;;;12.05;9.40;;;5.90;84.70;;;;;;5200181;28;20045;-66
2021/10/12 06:55:36;;;;;;;10.93;9.20;;;5.90;84.50;;;;;;5198221;28;20057;-65
2021/10/12 06:58:08;;;;;;;12.32;10.25;;;6.00;83.70;;;;;;5197174;28;20077;-66
2021/10/12 07:00:40;;;;;;;10.57;7.90;;;6.00;83.50;;;;;;5198757;28;20049;-65
2021/10/12 07:03:12;;;;;;;9.25;8.15;;;6.10;83.30;;;;;;5199494;28;20041;-65
2021/10/12 07:05:44;;;;;;;9.18;7.85;;;6.10;82.90;;;;;;5199835;28;20029;-64
2021/10/12 07:08:16;;;;;;;9.10;8.20;;;6.20;82.90;;;;;;5200468;28;20157;-67
2021/10/12 07:10:48;;;;;;;9.30;8.30;;;6.20;82.70;;;;;;5201856;28;20073;-65
2021/10/12 07:13:24;;;;;;;9.30;8.30;;;6.20;82.40;;;;;;5199555;28;20049;-65
2021/10/12 07:15:56;;;;;;;9.35;8.32;;;6.20;82.40;;;;;;5198797;28;20056;-65
2021/10/12 07:18:31;;;;;;;8.85;7.95;;;6.30;82.40;;;;;;5198683;28;20053;-65
2021/10/12 07:21:03;;;;;;;10.32;8.52;;;6.30;82.30;;;;;;5199742;28;20055;-65
2021/10/12 07:23:35;;;;;;;10.48;8.82;;;6.40;82.10;;;;;;5204546;28;20039;-66
2021/10/12 07:26:07;;;;;;;12.10;9.43;;;6.40;82.10;;;;;;5204482;28;20040;-67
2021/10/12 07:28:38;;;;;;;11.52;9.07;;;6.50;82.50;;;;;;5205256;28;20120;-66
2021/10/12 07:31:10;;;;;;;9.65;8.00;;;6.60;82.80;;;;;;5205283;28;20531;-65
2021/10/12 07:33:42;;;;;;;10.32;8.52;;;6.60;82.40;;;;;;5203580;28;20049;-65
2021/10/12 07:36:15;;;;;;;10.55;9.10;;;6.60;82.10;;;;;;5201561;28;20045;-65
2021/10/12 07:38:47;;;;;;;9.65;8.65;;;6.70;82.20;;;;;;5202545;28;20123;-65
2021/10/12 07:41:31;;;;;;;11.23;8.43;;;6.70;82.50;;;;;;5203102;28;20618;-65
2021/10/12 07:44:04;;;;;;;11.27;8.23;;;6.70;82.50;;;;;;5201583;28;20515;-67
2021/10/12 07:46:36;;;;;;;10.68;9.18;;;6.70;81.70;;;;;;5203103;28;20056;-65
2021/10/12 07:49:07;;;;;;;10.52;8.93;;;6.80;81.70;;;;;;5204466;28;20041;-65
2021/10/12 07:51:44;;;;;;;10.15;8.40;;;6.90;81.70;;;;;;5205388;28;20040;-65
2021/10/12 07:54:24;;;;;;;9.43;8.43;;;6.90;81.90;;;;;;5205558;28;20136;-65
2021/10/12 07:56:56;;;;;;;9.02;8.13;;;7.00;81.60;;;;;;5200667;28;20057;-65
2021/10/12 07:59:27;;;;;;;9.00;7.93;;;7.00;81.50;;;;;;5201727;28;20203;-66
2021/10/12 08:01:59;;;;;;;8.70;7.80;;;7.00;81.20;;;;;;5203198;28;20602;-65
2021/10/12 08:04:31;;;;;;;9.50;8.40;;;7.10;81.40;;;;;;5205587;28;20128;-65
2021/10/12 08:07:03;;;;;;;13.82;8.90;;;7.10;81.40;;;;;;5201763;28;20147;-66
2021/10/12 08:09:36;;;;;;;11.07;9.50;;;7.10;82.00;;;;;;5201949;28;20044;-65
2021/10/12 08:12:08;;;;;;;11.00;9.38;;;7.10;81.80;;;;;;5202206;28;20038;-65
2021/10/12 08:14:43;;;;;;;10.40;9.40;;;7.10;82.10;;;;;;5202465;28;20163;-66
2021/10/12 08:17:15;;;;;;;9.77;8.77;;;7.20;81.70;;;;;;5185251;28;20082;-65
2021/10/12 08:19:47;;;;;;;11.32;9.52;;;7.10;81.00;;;;;;5202235;28;20124;-66
2021/10/12 08:22:19;;;;;;;11.43;9.55;;;7.20;81.20;;;;;;5199485;28;20045;-67
2021/10/12 08:24:51;;;;;;;10.93;9.75;;;7.20;80.70;;;;;;5203503;28;21045;-66
2021/10/12 08:27:23;;;;;;;10.73;9.63;;;7.30;80.90;;;;;;5204209;28;20045;-65
2021/10/12 08:29:55;;;;;;;11.48;10.27;;;7.30;81.20;;;;;;5202430;28;20427;-65
2021/10/12 08:32:27;;;;;;;11.73;9.93;;;7.40;81.20;;;;;;5198007;28;20831;-66
2021/10/12 08:34:59;;;;;;;10.77;9.68;;;7.40;81.10;;;;;;5201357;28;20128;-65
2021/10/12 08:37:31;;;;;;;11.23;10.13;;;7.40;82.00;;;;;;5201889;28;20041;-65
2021/10/12 08:40:06;;;;;;;11.05;9.45;;;7.40;81.50;;;;;;5184550;28;20828;-66
2021/10/12 08:42:52;;;;;;;10.70;9.60;;;7.40;81.50;;;;;;5203426;28;20473;-66
2021/10/12 08:45:24;;;;;;;12.45;9.65;;;7.40;81.40;;;;;;5199461;28;20048;-65
2021/10/12 08:47:58;;;;;;;10.35;8.93;;;7.40;80.90;;;;;;5203909;28;20065;-65
2021/10/12 08:50:30;;;;;;;13.70;9.20;;;7.40;81.10;;;;;;5216441;28;20060;-66
2021/10/12 08:53:03;;;;;;;10.38;8.82;;;7.40;82.10;;;;;;5202893;28;20061;-66
2021/10/12 08:55:35;;;;;;;10.82;9.45;;;7.40;82.50;;;;;;5201098;28;20091;-66
2021/10/12 08:58:06;;;;;;;10.35;8.75;;;7.40;82.40;;;;;;5201170;28;20579;-66
2021/10/12 09:00:39;;;;;;;11.68;9.88;;;7.50;83.00;;;;;;5203657;28;20046;-66
2021/10/12 09:05:56;;;;;;;11.82;9.68;;;7.50;83.00;;;;;;5199950;28;20073;-65
2021/10/12 09:08:39;;;;;;;12.00;9.98;;;7.60;82.80;;;;;;5204409;28;20446;-65
2021/10/12 09:11:22;;;;;;;11.05;9.93;;;7.60;83.60;;;;;;5202195;28;20500;-66
2021/10/12 09:14:11;;;;;;;12.55;11.05;;;7.60;84.90;;;;;;5201097;28;20126;-66
2021/10/12 09:16:44;;;;;;;14.23;11.38;;;7.60;84.60;;;;;;5199601;28;20045;-65
2021/10/12 09:19:18;;;;;;;16.15;13.07;;;7.60;84.40;;;;;;5184819;28;20099;-65
2021/10/12 09:21:52;;;;;;;17.60;12.70;;;7.60;85.10;;;;;;5199029;28;20541;-66
2021/10/12 09:24:25;;;;;;;14.65;11.77;;;7.60;85.50;;;;;;5203789;28;20409;-64
2021/10/12 09:27:01;;;;;;;14.70;11.98;;;7.60;85.60;;;;;;5202232;28;20133;-65
2021/10/12 09:29:37;;;;;;;13.65;11.93;;;7.60;84.70;;;;;;5200634;28;20080;-65
2021/10/12 09:32:09;;;;;;;16.08;12.60;;;7.60;85.10;;;;;;5202737;28;20056;-65
2021/10/12 09:34:44;;;;;;;19.08;15.07;;;7.60;85.20;;;;;;5204735;28;21053;-66
2021/10/12 09:37:17;;;;;;;15.50;12.48;;;7.60;85.10;;;;;;5199186;28;20143;-65
2021/10/12 09:39:50;;;;;;;14.98;12.65;;;7.60;84.10;;;;;;5200408;28;20048;-67
2021/10/12 09:42:21;;;;;;;15.55;12.50;;;7.60;84.00;;;;;;5185661;28;20056;-66
2021/10/12 09:44:59;;;;;;;15.35;12.23;;;7.70;83.70;;;;;;5199899;28;20049;-67
2021/10/12 09:47:39;;;;;;;13.60;11.57;;;7.70;84.10;;;;;;5198365;28;20582;-65
2021/10/12 09:50:14;;;;;;;14.38;12.07;;;7.80;83.90;;;;;;5200197;28;20041;-66
2021/10/12 09:52:46;;;;;;;14.13;11.93;;;7.90;84.30;;;;;;5199682;28;20068;-66
2021/10/12 09:55:38;;;;;;;14.13;12.02;;;7.90;83.50;;;;;;5200781;28;20116;-67
2021/10/12 09:58:10;;;;;;;14.25;12.35;;;7.80;83.00;;;;;;5202337;28;20048;-65
2021/10/12 10:00:42;;;;;;;15.55;12.70;;;7.80;83.60;;;;;;5202351;28;20116;-66
2021/10/12 10:03:16;;;;;;;14.23;12.00;;;7.80;83.70;;;;;;5198919;28;20068;-65
2021/10/12 10:05:50;;;;;;;18.27;12.30;;;7.90;84.20;;;;;;5198902;28;20371;-65
2021/10/12 10:08:23;;;;;;;13.02;11.63;;;7.90;84.00;;;;;;5201692;28;20065;-65
2021/10/12 10:10:57;;;;;;;14.27;11.73;;;7.90;83.50;;;;;;5198789;28;20472;-65
2021/10/12 10:13:33;;;;;;;13.63;12.02;;;7.90;84.10;;;;;;5198216;28;20431;-66
2021/10/12 10:16:08;;;;;;;13.38;11.85;;;8.00;84.40;;;;;;5199546;28;20061;-68
2021/10/12 10:18:41;;;;;;;14.52;11.85;;;8.00;84.30;;;;;;5201089;28;20045;-64
2021/10/12 10:21:13;;;;;;;13.00;11.60;;;8.10;84.20;;;;;;5200513;28;20045;-66
2021/10/12 10:24:01;;;;;;;14.00;12.50;;;8.20;84.10;;;;;;5197635;28;20206;-65
2021/10/12 10:26:36;;;;;;;14.93;11.63;;;8.20;84.50;;;;;;5196832;28;20135;-67
2021/10/12 10:29:43;;;;;;;14.05;11.77;;;8.20;84.70;;;;;;5199152;28;20634;-65
2021/10/12 10:32:22;;;;;;;13.23;11.82;;;8.30;84.90;;;;;;5135752;28;20051;-65
2021/10/12 10:35:00;;;;;;;13.68;12.18;;;8.40;84.50;;;;;;5190960;28;20062;-65
2021/10/12 10:37:33;;;;;;;14.02;12.40;;;8.40;84.40;;;;;;5196286;28;20073;-66
2021/10/12 10:40:35;;;;;;;13.57;12.18;;;8.40;84.60;;;;;;5198359;28;20131;-66
2021/10/12 10:43:07;;;;;;;13.57;12.18;;;8.40;85.50;;;;;;5203196;28;20124;-66
2021/10/12 10:45:42;;;;;;;13.15;11.80;;;8.40;84.70;;;;;;5198393;28;20037;-66
2021/10/12 10:48:20;;;;;;;13.23;11.40;;;8.30;85.30;;;;;;5199194;28;20045;-66
2021/10/12 10:51:22;;;;;;;13.50;11.70;;;8.30;85.70;;;;;;5199074;28;20045;-66
2021/10/12 10:53:54;;;;;;;13.50;11.95;;;8.20;86.00;;;;;;5200147;28;20064;-64
2021/10/12 10:56:26;;;;;;;14.32;11.65;;;8.10;86.70;;;;;;5203748;28;20140;-66
2021/10/12 10:59:20;;;;;;;13.70;12.00;;;8.10;87.30;;;;;;5202195;28;20049;-66
2021/10/12 11:01:55;;;;;;;13.15;11.65;;;8.20;86.70;;;;;;5203884;28;20511;-66
2021/10/12 11:04:43;;;;;;;13.02;11.73;;;8.20;85.90;;;;;;5186051;28;20045;-66
2021/10/12 11:07:23;;;;;;;13.38;11.88;;;8.30;85.10;;;;;;5201257;28;20864;-65
2021/10/12 11:09:55;;;;;;;14.33;12.23;;;8.30;85.00;;;;;;5199339;28;20613;-65
2021/10/12 11:12:31;;;;;;;14.35;12.85;;;8.30;85.20;;;;;;5204134;28;20306;-66
2021/10/12 11:15:07;;;;;;;12.90;11.57;;;8.40;85.20;;;;;;5204007;28;20061;-66
2021/10/12 11:17:41;;;;;;;19.30;14.07;;;8.40;85.00;;;;;;5202145;28;20529;-65
2021/10/12 11:20:17;;;;;;;17.52;14.45;;;8.40;85.20;;;;;;5202292;28;20092;-67
2021/10/12 11:22:50;;;;;;;19.05;16.13;;;8.50;85.50;;;;;;5202258;28;20462;-66
2021/10/12 11:25:29;;;;;;;15.95;13.70;;;8.50;85.80;;;;;;5202431;28;20043;-66
2021/10/12 11:28:12;;;;;;;15.63;13.40;;;8.60;85.70;;;;;;5203522;28;20529;-66
2021/10/12 11:30:44;;;;;;;14.23;12.65;;;8.60;85.50;;;;;;5202535;28;20051;-66
2021/10/12 11:33:28;;;;;;;14.20;12.80;;;8.60;84.90;;;;;;5200042;28;20128;-65
2021/10/12 11:36:03;;;;;;;14.43;13.02;;;8.70;84.70;;;;;;5202766;28;20130;-65
2021/10/12 11:38:42;;;;;;;15.88;12.85;;;8.60;83.90;;;;;;5200893;28;20046;-66
2021/10/12 11:41:35;;;;;;;14.40;12.90;;;8.60;84.60;;;;;;5200273;28;20129;-66
2021/10/12 11:44:16;;;;;;;14.20;12.70;;;8.60;84.70;;;;;;5202062;28;20113;-66
2021/10/12 11:46:50;;;;;;;14.30;12.80;;;8.60;84.50;;;;;;5201376;28;20563;-65
2021/10/12 11:49:23;;;;;;;15.07;13.48;;;8.70;84.70;;;;;;5203185;28;20402;-67
2021/10/12 11:51:55;;;;;;;14.30;12.90;;;8.70;85.00;;;;;;5203143;28;20136;-66
2021/10/12 11:54:28;;;;;;;15.15;13.60;;;8.70;83.80;;;;;;5202030;28;20132;-66
2021/10/12 11:57:02;;;;;;;14.73;13.23;;;8.70;84.60;;;;;;5199397;28;20052;-65
2021/10/12 11:59:46;;;;;;;15.25;13.02;;;8.70;85.10;;;;;;5198300;28;20124;-65
2021/10/12 12:02:18;;;;;;;14.90;13.40;;;8.70;85.00;;;;;;5198675;28;20056;-65
2021/10/12 12:04:51;;;;;;;14.63;13.13;;;8.70;85.10;;;;;;5201319;28;20041;-65
2021/10/12 12:07:23;;;;;;;14.95;13.38;;;8.80;85.50;;;;;;5197452;28;20072;-66
2021/10/12 12:09:55;;;;;;;15.73;13.45;;;8.70;84.80;;;;;;5201398;28;20046;-66
2021/10/12 12:12:27;;;;;;;15.00;13.48;;;8.80;85.60;;;;;;5202440;28;20133;-66
2021/10/12 12:14:59;;;;;;;14.85;13.27;;;8.80;85.40;;;;;;5201646;28;20099;-66
2021/10/12 12:17:33;;;;;;;15.32;13.30;;;8.80;85.00;;;;;;5201345;28;20049;-66
2021/10/12 12:20:09;;;;;;;14.82;13.25;;;8.80;85.60;;;;;;5198626;28;20065;-66
2021/10/12 12:22:43;;;;;;;14.07;12.68;;;8.80;84.00;;;;;;5201540;28;20549;-66
2021/10/12 12:25:21;;;;;;;14.02;12.63;;;8.70;84.40;;;;;;5201124;28;21189;-66
2021/10/12 12:27:57;;;;;;;13.93;12.55;;;8.70;85.10;;;;;;5194461;28;20582;-66
2021/10/12 12:30:41;;;;;;;13.43;12.13;;;8.80;84.50;;;;;;5199160;28;20057;-66
2021/10/12 12:33:13;;;;;;;14.18;11.57;;;8.70;83.80;;;;;;5200677;28;20458;-66
2021/10/12 12:35:52;;;;;;;13.18;11.88;;;8.70;83.70;;;;;;5199662;28;20785;-65
2021/10/12 12:38:29;;;;;;;13.00;11.70;;;8.70;83.60;;;;;;5199811;28;20135;-67
2021/10/12 12:41:01;;;;;;;12.02;10.93;;;8.70;80.90;;;;;;5203178;28;21517;-66
2021/10/12 12:43:33;;;;;;;12.88;11.68;;;8.60;81.10;;;;;;5202340;28;20126;-66
2021/10/12 12:46:09;;;;;;;12.13;10.93;;;8.50;82.50;;;;;;5202037;28;20079;-66
2021/10/12 12:48:43;;;;;;;12.07;10.88;;;8.50;82.00;;;;;;5203058;28;20049;-66
2021/10/12 12:51:16;;;;;;;12.07;10.88;;;8.50;82.00;;;;;;5200344;28;20140;-65
2021/10/12 12:53:49;;;;;;;12.18;10.98;;;8.50;81.20;;;;;;5201954;28;20077;-65
2021/10/12 12:56:33;;;;;;;11.90;10.70;;;8.50;82.00;;;;;;5202421;28;20041;-65
2021/10/12 12:59:10;;;;;;;12.65;11.45;;;8.50;81.70;;;;;;5202315;28;20051;-66
2021/10/12 13:01:51;;;;;;;12.13;10.80;;;8.50;82.30;;;;;;5188817;28;20053;-66
2021/10/12 13:04:23;;;;;;;12.45;11.25;;;8.50;81.10;;;;;;5201201;28;20521;-65
2021/10/12 13:06:56;;;;;;;11.82;10.73;;;8.40;82.00;;;;;;5198168;28;20107;-65
2021/10/12 13:09:30;;;;;;;12.50;11.35;;;8.40;83.30;;;;;;5202047;28;20041;-65
2021/10/12 13:12:03;;;;;;;12.27;11.07;;;8.50;83.00;;;;;;5201878;28;20512;-66
2021/10/12 13:14:35;;;;;;;11.95;10.85;;;8.50;83.60;;;;;;5203939;28;20045;-65
2021/10/12 13:17:06;;;;;;;12.65;11.45;;;8.50;83.90;;;;;;5201766;28;20466;-66
2021/10/12 13:19:38;;;;;;;13.32;11.93;;;8.60;83.90;;;;;;5201175;28;20045;-65
2021/10/12 13:22:10;;;;;;;14.93;13.52;;;8.50;83.90;;;;;;5200483;28;20132;-66
2021/10/12 13:24:43;;;;;;;16.83;14.25;;;8.50;84.00;;;;;;5197541;28;20125;-65